createdAt,value
2019-01-16T00:00:42.715Z,30.30
2019-01-16T00:03:43.204Z,27.90
2019-01-16T00:06:37.443Z,27.00
2019-01-16T00:09:26.641Z,29.50
2019-01-16T00:12:18.119Z,26.37
2019-01-16T00:15:08.401Z,29.17
2019-01-16T00:18:09.123Z,31.67
2019-01-16T00:20:58.693Z,31.93
2019-01-16T00:23:53.405Z,30.53
2019-01-16T00:26:44.886Z,27.27
2019-01-16T00:29:32.167Z,25.63
2019-01-16T00:32:10.688Z,26.03
2019-01-16T00:34:50.169Z,23.63
2019-01-16T00:37:37.098Z,30.23
2019-01-16T00:40:25.931Z,22.83
2019-01-16T00:43:17.417Z,33.63
2019-01-16T00:46:11.774Z,23.77
2019-01-16T00:48:52.576Z,24.90
2019-01-16T00:51:46.336Z,22.53
2019-01-16T00:54:50.058Z,23.93
2019-01-16T00:57:53.421Z,24.17
2019-01-16T01:00:47.781Z,23.93
2019-01-16T01:03:39.141Z,27.13
2019-01-16T01:06:26.423Z,27.37
2019-01-16T01:09:13.584Z,18.73
2019-01-16T01:11:54.989Z,27.50
2019-01-16T01:14:40.347Z,23.07
2019-01-16T01:17:37.828Z,15.40
2019-01-16T01:20:25.229Z,20.63
2019-01-16T01:23:31.591Z,23.03
2019-01-16T01:26:30.513Z,16.17
2019-01-16T01:29:17.433Z,19.17
2019-01-16T01:32:07.239Z,25.30
2019-01-16T01:34:48.035Z,21.63
2019-01-16T01:37:48.764Z,21.00
2019-01-16T01:40:47.077Z,19.60
2019-01-16T01:43:34.119Z,21.50
2019-01-16T01:46:31.001Z,19.13
2019-01-16T01:49:31.364Z,21.60
2019-01-16T01:52:38.083Z,20.07
2019-01-16T01:55:25.246Z,22.20
2019-01-16T01:58:16.846Z,16.83
2019-01-16T02:01:04.127Z,22.30
2019-01-16T02:03:47.928Z,20.93
2019-01-16T02:06:43.098Z,27.60
2019-01-16T02:09:30.006Z,20.60
2019-01-16T02:12:14.625Z,25.33
2019-01-16T02:15:02.876Z,25.37
2019-01-16T02:17:49.765Z,22.43
2019-01-16T02:20:47.226Z,27.50
2019-01-16T02:23:41.175Z,23.23
2019-01-16T02:26:27.939Z,27.23
2019-01-16T02:29:19.818Z,22.67
2019-01-16T02:32:07.466Z,18.40
2019-01-16T02:35:11.659Z,20.73
2019-01-16T02:37:54.496Z,26.23
2019-01-16T02:40:41.775Z,27.00
2019-01-16T02:43:29.775Z,25.83
2019-01-16T02:46:09.631Z,23.47
2019-01-16T02:48:55.844Z,25.40
2019-01-16T02:51:50.070Z,28.47
2019-01-16T02:54:44.764Z,26.30
2019-01-16T02:57:23.168Z,23.40
2019-01-16T03:00:03.845Z,29.77
2019-01-16T03:02:55.693Z,26.97
2019-01-16T03:05:42.744Z,25.93
2019-01-16T03:08:18.609Z,24.10
2019-01-16T03:11:17.529Z,28.30
2019-01-16T03:14:00.854Z,26.50
2019-01-16T03:16:41.412Z,25.27
2019-01-16T03:19:28.333Z,28.80
2019-01-16T03:22:25.716Z,25.33
2019-01-16T03:25:05.296Z,23.27
2019-01-16T03:27:53.657Z,24.37
2019-01-16T03:30:44.576Z,25.70
2019-01-16T03:33:32.568Z,22.83
2019-01-16T03:36:33.892Z,23.93
2019-01-16T03:39:18.651Z,24.57
2019-01-16T03:42:07.017Z,27.83
2019-01-16T03:45:14.571Z,29.13
2019-01-16T03:48:04.225Z,31.07
2019-01-16T03:50:50.912Z,22.90
2019-01-16T03:53:58.467Z,26.77
2019-01-16T03:56:57.992Z,25.63
2019-01-16T03:59:46.711Z,21.77
2019-01-16T04:02:38.202Z,24.53
2019-01-16T04:05:25.713Z,25.13
2019-01-16T04:08:33.273Z,27.23
2019-01-16T04:11:23.185Z,24.57
2019-01-16T04:14:10.009Z,28.67
2019-01-16T04:17:04.257Z,24.33
2019-01-16T04:20:01.969Z,19.53
2019-01-16T04:22:49.671Z,22.47
2019-01-16T04:25:44.670Z,26.57
2019-01-16T04:28:22.224Z,18.67
2019-01-16T04:31:06.749Z,21.97
2019-01-16T04:33:58.254Z,28.83
2019-01-16T04:36:45.504Z,21.73
2019-01-16T04:39:33.996Z,24.43
2019-01-16T04:42:19.585Z,25.03
2019-01-16T04:45:15.028Z,23.07
2019-01-16T04:48:18.146Z,21.77
2019-01-16T04:51:06.398Z,22.87
2019-01-16T04:53:49.357Z,26.60
2019-01-16T04:56:37.830Z,25.33
2019-01-16T04:59:45.754Z,22.40
2019-01-16T05:02:33.628Z,25.93
2019-01-16T05:05:27.390Z,26.50
2019-01-16T05:08:28.108Z,27.10
2019-01-16T05:11:20.308Z,25.73
2019-01-16T05:13:59.549Z,22.90
2019-01-16T05:16:48.508Z,25.40
2019-01-16T05:19:47.317Z,27.17
2019-01-16T05:22:26.191Z,26.70
2019-01-16T05:25:10.011Z,26.37
2019-01-16T05:28:13.136Z,26.60
2019-01-16T05:31:03.691Z,27.83
2019-01-16T05:33:52.653Z,27.57
2019-01-16T05:36:46.532Z,28.67
2019-01-16T05:39:26.260Z,26.67
2019-01-16T05:42:13.775Z,30.97
2019-01-16T05:45:14.017Z,27.57
2019-01-16T05:48:05.384Z,28.43
2019-01-16T05:50:53.498Z,26.03
2019-01-16T05:53:53.261Z,29.17
2019-01-16T05:56:58.688Z,26.13
2019-01-16T05:59:53.824Z,29.90
2019-01-16T06:03:05.082Z,32.17
2019-01-16T06:06:09.585Z,33.37
2019-01-16T06:09:13.667Z,31.73
2019-01-16T06:12:05.267Z,32.20
2019-01-16T06:15:03.827Z,29.53
2019-01-16T06:17:50.150Z,35.50
2019-01-16T06:20:37.910Z,30.77
2019-01-16T06:23:19.913Z,31.80
2019-01-16T06:26:06.475Z,35.60
2019-01-16T06:28:52.914Z,24.80
2019-01-16T06:31:43.197Z,34.40
2019-01-16T06:34:32.636Z,31.80
2019-01-16T06:37:25.561Z,37.45
2019-01-16T06:40:26.880Z,37.23
2019-01-16T06:43:14.402Z,34.83
2019-01-16T06:45:56.884Z,35.73
2019-01-16T06:48:45.879Z,34.93
2019-01-16T06:51:53.204Z,35.17
2019-01-16T06:57:56.437Z,36.60
2019-01-16T07:00:47.560Z,35.10
2019-01-16T07:03:35.818Z,37.67
2019-01-16T07:06:32.458Z,40.57
2019-01-16T07:09:19.477Z,40.53
2019-01-16T07:11:58.623Z,39.70
2019-01-16T07:15:14.717Z,38.77
2019-01-16T07:18:15.318Z,39.43
2019-01-16T07:21:02.480Z,46.77
2019-01-16T07:23:45.920Z,42.43
2019-01-16T07:26:43.522Z,40.20
2019-01-16T07:29:32.603Z,41.77
2019-01-16T07:32:27.085Z,47.63
2019-01-16T07:35:15.325Z,40.07
2019-01-16T07:38:15.725Z,38.43
2019-01-16T07:41:16.446Z,36.13
2019-01-16T07:44:07.691Z,36.97
2019-01-16T07:46:48.545Z,36.30
2019-01-16T07:49:52.219Z,35.90
2019-01-16T07:52:42.019Z,38.90
2019-01-16T07:55:30.375Z,35.37
2019-01-16T07:58:16.817Z,33.30
2019-01-16T08:01:06.378Z,36.27
2019-01-16T08:04:05.189Z,37.10
2019-01-16T08:06:47.420Z,34.57
2019-01-16T08:09:35.779Z,34.23
2019-01-16T08:12:27.030Z,36.33
2019-01-16T08:15:14.062Z,34.53
2019-01-16T08:18:01.594Z,35.17
2019-01-16T08:21:10.825Z,34.90
2019-01-16T08:23:50.785Z,34.57
2019-01-16T08:26:54.516Z,29.87
2019-01-16T08:29:52.107Z,29.03
2019-01-16T08:32:34.110Z,28.93
2019-01-16T08:35:25.591Z,31.07
2019-01-16T08:38:29.432Z,30.23
2019-01-16T08:41:13.114Z,31.80
2019-01-16T08:44:19.832Z,30.87
2019-01-16T08:47:01.957Z,28.57
2019-01-16T08:49:50.195Z,29.33
2019-01-16T08:52:38.556Z,24.73
2019-01-16T08:55:16.117Z,22.57
2019-01-16T08:58:10.479Z,23.20
2019-01-16T09:00:50.800Z,25.20
2019-01-16T09:03:51.282Z,26.63
2019-01-16T09:06:46.844Z,23.23
2019-01-16T09:09:39.525Z,20.43
2019-01-16T09:12:28.845Z,22.63
2019-01-16T09:15:16.127Z,22.03
2019-01-16T09:18:11.206Z,23.10
2019-01-16T09:20:47.093Z,23.80
2019-01-16T09:23:38.569Z,19.63
2019-01-16T09:26:21.893Z,25.60
2019-01-16T09:29:04.851Z,18.43
2019-01-16T09:31:52.373Z,20.40
2019-01-16T09:34:29.094Z,20.20
2019-01-16T09:37:15.296Z,21.63
2019-01-16T09:39:57.057Z,19.17
2019-01-16T09:42:49.622Z,17.97
2019-01-16T09:45:36.779Z,18.80
2019-01-16T09:48:26.040Z,19.70
2019-01-16T09:51:13.502Z,20.93
2019-01-16T09:53:50.940Z,17.43
2019-01-16T09:56:45.783Z,18.83
2019-01-16T09:59:36.066Z,19.57
2019-01-16T10:02:23.826Z,18.13
2019-01-16T10:05:16.867Z,17.30
2019-01-16T10:08:00.908Z,16.80
2019-01-16T10:10:52.148Z,16.23
2019-01-16T10:13:43.991Z,20.13
2019-01-16T10:16:23.592Z,21.30
2019-01-16T10:19:18.197Z,17.90
2019-01-16T10:22:15.799Z,19.07
2019-01-16T10:24:55.155Z,17.03
2019-01-16T10:30:39.440Z,18.03
2019-01-16T10:33:27.439Z,16.13
2019-01-16T10:36:31.640Z,20.30
2019-01-16T10:39:21.802Z,17.50
2019-01-16T10:42:22.524Z,18.07
2019-01-16T10:45:05.245Z,20.47
2019-01-16T10:47:52.526Z,17.60
2019-01-16T10:50:44.368Z,17.13
2019-01-16T10:53:48.211Z,19.20
2019-01-16T10:56:55.200Z,20.83
2019-01-16T10:59:50.252Z,21.20
2019-01-16T11:02:38.616Z,21.90
2019-01-16T11:05:15.605Z,24.73
2019-01-16T11:08:04.808Z,26.40
2019-01-16T11:11:06.722Z,25.37
2019-01-16T11:13:56.887Z,26.77
2019-01-16T11:16:46.331Z,27.83
2019-01-16T11:19:29.887Z,29.73
2019-01-16T11:22:21.371Z,27.20
2019-01-16T11:25:10.944Z,28.03
2019-01-16T11:27:53.889Z,25.77
2019-01-16T11:30:46.227Z,29.60
2019-01-16T11:33:31.089Z,26.13
2019-01-16T11:36:32.533Z,28.10
2019-01-16T11:39:20.770Z,27.40
2019-01-16T11:42:09.730Z,25.03
2019-01-16T11:45:05.531Z,27.63
2019-01-16T11:47:59.285Z,27.67
2019-01-16T11:50:57.510Z,26.30
2019-01-16T11:53:52.335Z,28.80
2019-01-16T11:56:33.498Z,27.13
2019-01-16T11:59:25.342Z,27.77
2019-01-16T12:02:20.447Z,26.87
2019-01-16T12:04:58.957Z,26.43
2019-01-16T12:07:54.015Z,29.70
2019-01-16T12:10:52.450Z,31.47
2019-01-16T12:13:59.774Z,26.10
2019-01-16T12:16:51.499Z,24.47
2019-01-16T12:19:39.252Z,27.37
2019-01-16T12:22:28.572Z,26.47
2019-01-16T12:25:15.132Z,25.83
2019-01-16T12:28:04.093Z,26.10
2019-01-16T12:30:51.493Z,22.17
2019-01-16T12:33:40.214Z,25.33
2019-01-16T12:36:27.611Z,25.63
2019-01-16T12:39:13.298Z,22.50
2019-01-16T12:42:00.756Z,22.80
2019-01-16T12:44:52.094Z,25.43
2019-01-16T12:47:39.376Z,25.77
2019-01-16T12:50:27.376Z,25.13
2019-01-16T12:53:18.979Z,25.33
2019-01-16T12:56:19.942Z,27.47
2019-01-16T12:59:07.098Z,22.93
2019-01-16T13:02:03.271Z,20.97
2019-01-16T13:04:54.629Z,26.73
2019-01-16T13:07:49.348Z,25.13
2019-01-16T13:10:37.959Z,25.50
2019-01-16T13:13:26.197Z,30.07
2019-01-16T13:16:14.666Z,26.37
2019-01-16T13:19:06.150Z,26.83
2019-01-16T13:21:57.644Z,27.20
2019-01-16T13:24:45.639Z,25.63
2019-01-16T13:27:33.034Z,28.57
2019-01-16T13:30:19.842Z,26.17
2019-01-16T13:33:11.593Z,23.80
2019-01-16T13:35:49.958Z,20.47
2019-01-16T13:38:37.357Z,23.40
2019-01-16T13:41:31.844Z,21.50
2019-01-16T13:44:26.199Z,24.47
2019-01-16T13:47:04.961Z,22.90
2019-01-16T13:49:46.361Z,19.27
2019-01-16T13:52:53.190Z,22.60
2019-01-16T13:55:43.844Z,19.60
2019-01-16T13:58:30.767Z,21.23
2019-01-16T14:01:07.729Z,20.53
2019-01-16T14:03:54.771Z,23.03
2019-01-16T14:06:39.768Z,17.67
2019-01-16T14:09:25.373Z,17.20
2019-01-16T14:12:05.570Z,19.70
2019-01-16T14:14:59.694Z,17.17
2019-01-16T14:17:46.612Z,17.97
2019-01-16T14:20:34.255Z,17.87
2019-01-16T14:23:22.392Z,17.53
2019-01-16T14:26:24.779Z,16.97
2019-01-16T14:29:13.138Z,15.80
2019-01-16T14:32:02.824Z,16.03
2019-01-16T14:34:55.369Z,14.63
2019-01-16T14:37:50.345Z,14.63
2019-01-16T14:43:47.037Z,13.97
2019-01-16T14:46:30.834Z,13.93
2019-01-16T14:49:10.313Z,13.27
2019-01-16T14:51:50.680Z,13.07
2019-01-16T14:54:33.084Z,14.63
2019-01-16T14:57:27.551Z,14.93
2019-01-16T15:00:14.953Z,14.47
2019-01-16T15:03:36.792Z,16.63
2019-01-16T15:06:47.752Z,15.87
2019-01-16T15:09:53.838Z,14.20
2019-01-16T15:12:58.996Z,18.13
2019-01-16T15:15:45.196Z,13.97
2019-01-16T15:18:36.683Z,16.43
2019-01-16T15:21:25.300Z,17.17
2019-01-16T15:24:15.442Z,16.93
2019-01-16T15:26:56.360Z,14.83
2019-01-16T15:29:44.842Z,16.30
2019-01-16T15:32:44.124Z,14.03
2019-01-16T15:35:38.605Z,17.03
2019-01-16T15:38:20.250Z,15.03
2019-01-16T15:41:17.727Z,17.23
2019-01-16T15:44:12.088Z,15.57
2019-01-16T15:46:59.730Z,13.93
2019-01-16T15:49:47.014Z,14.03
2019-01-16T15:52:41.732Z,14.73
2019-01-16T15:55:29.376Z,14.77
2019-01-16T15:58:17.973Z,12.47
2019-01-16T16:01:19.055Z,16.27
2019-01-16T16:04:05.857Z,14.70
2019-01-16T16:06:54.577Z,16.00
2019-01-16T16:09:33.939Z,12.13
2019-01-16T16:12:17.380Z,12.33
2019-01-16T16:15:00.581Z,14.03
2019-01-16T16:17:49.661Z,16.07
2019-01-16T16:20:38.382Z,15.77
2019-01-16T16:23:30.106Z,16.40
2019-01-16T16:26:18.826Z,15.37
2019-01-16T16:29:25.588Z,17.67
2019-01-16T16:32:23.388Z,17.03
2019-01-16T16:35:12.589Z,19.73
2019-01-16T16:38:00.351Z,19.40
2019-01-16T16:40:38.874Z,20.70
2019-01-16T16:43:33.870Z,20.43
2019-01-16T16:46:25.914Z,22.43
2019-01-16T16:49:05.158Z,25.23
2019-01-16T16:51:53.191Z,21.33
2019-01-16T16:54:41.310Z,22.40
2019-01-16T16:57:23.075Z,21.20
2019-01-16T17:00:18.392Z,23.57
2019-01-16T17:03:14.554Z,24.17
2019-01-16T17:06:03.152Z,24.67
2019-01-16T17:08:49.839Z,28.17
2019-01-16T17:11:38.072Z,31.33
2019-01-16T17:14:27.400Z,28.70
2019-01-16T17:17:15.872Z,32.57
2019-01-16T17:19:57.279Z,31.40
2019-01-16T17:22:52.955Z,34.17
2019-01-16T17:25:45.394Z,36.40
2019-01-16T17:28:35.537Z,36.00
2019-01-16T17:31:24.167Z,35.30
2019-01-16T17:34:12.398Z,34.43
2019-01-16T17:37:00.872Z,33.70
2019-01-16T17:39:52.717Z,33.00
2019-01-16T17:42:45.916Z,36.37
2019-01-16T17:45:53.682Z,31.30
2019-01-16T17:48:48.754Z,34.13
2019-01-16T17:51:38.781Z,31.03
2019-01-16T17:54:31.953Z,33.37
2019-01-16T17:57:22.002Z,32.63
2019-01-16T18:00:15.053Z,30.50
2019-01-16T18:03:02.682Z,28.40
2019-01-16T18:06:01.125Z,27.33
2019-01-16T18:08:38.075Z,26.53
2019-01-16T18:11:30.755Z,34.50
2019-01-16T18:14:19.117Z,30.43
2019-01-16T18:17:11.434Z,29.43
2019-01-16T18:19:56.675Z,29.93
2019-01-16T18:22:47.807Z,30.40
2019-01-16T18:25:32.346Z,26.40
2019-01-16T18:28:36.037Z,30.13
2019-01-16T18:31:24.043Z,32.20
2019-01-16T18:34:27.762Z,29.03
2019-01-16T18:37:12.759Z,31.07
2019-01-16T18:40:09.176Z,29.90
2019-01-16T18:42:55.841Z,36.47
2019-01-16T18:46:03.540Z,30.20
2019-01-16T18:49:10.499Z,30.03
2019-01-16T18:52:05.685Z,32.03
2019-01-16T18:54:56.342Z,27.97
2019-01-16T18:58:24.406Z,29.77
2019-01-16T19:01:26.689Z,26.57
2019-01-16T19:04:20.674Z,22.37
2019-01-16T19:07:18.039Z,26.17
2019-01-16T19:10:26.827Z,26.73
2019-01-16T19:13:11.817Z,21.93
2019-01-16T19:16:04.204Z,23.70
2019-01-16T19:18:51.259Z,17.07
2019-01-16T19:21:38.257Z,20.37
2019-01-16T19:24:16.126Z,19.90
2019-01-16T19:27:08.418Z,21.40
2019-01-16T19:30:11.923Z,19.30
2019-01-16T19:33:03.992Z,24.90
2019-01-16T19:36:04.474Z,21.47
2019-01-16T19:39:01.839Z,22.60
2019-01-16T19:41:46.043Z,21.50
2019-01-16T19:45:22.941Z,15.50
2019-01-16T19:48:29.545Z,21.67
2019-01-16T19:51:30.981Z,26.63
2019-01-16T19:54:20.685Z,23.37
2019-01-16T19:57:29.096Z,26.77
2019-01-16T20:00:20.433Z,26.50
2019-01-16T20:03:01.176Z,24.73
2019-01-16T20:05:53.543Z,27.40
2019-01-16T20:08:39.864Z,28.30
2019-01-16T20:11:27.592Z,27.70
2019-01-16T20:14:18.417Z,28.00
2019-01-16T20:16:57.330Z,33.97
2019-01-16T20:19:50.274Z,25.53
2019-01-16T20:22:28.637Z,33.17
2019-01-16T20:25:31.603Z,29.70
2019-01-16T20:28:25.448Z,27.30
2019-01-16T20:31:22.313Z,28.70
2019-01-16T20:34:09.238Z,30.53
2019-01-16T20:37:00.400Z,30.30
2019-01-16T20:39:46.772Z,34.97
2019-01-16T20:42:29.527Z,28.60
2019-01-16T20:45:26.364Z,29.13
2019-01-16T20:48:32.084Z,29.67
2019-01-16T20:51:25.501Z,27.17
2019-01-16T20:54:31.605Z,30.43
2019-01-16T20:57:18.455Z,31.03
2019-01-16T21:00:04.884Z,27.80
2019-01-16T21:02:49.734Z,24.73
2019-01-16T21:05:38.056Z,28.40
2019-01-16T21:08:23.373Z,26.40
2019-01-16T21:11:13.277Z,27.63
2019-01-16T21:13:52.604Z,30.20
2019-01-16T21:16:42.321Z,28.23
2019-01-16T21:19:33.359Z,23.70
2019-01-16T21:22:24.062Z,25.03
2019-01-16T21:25:06.507Z,26.03
2019-01-16T21:27:46.046Z,27.63
2019-01-16T21:30:35.055Z,25.90
2019-01-16T21:33:38.165Z,26.37
2019-01-16T21:36:29.186Z,25.07
2019-01-16T21:39:32.070Z,27.40
2019-01-16T21:42:32.600Z,21.60
2019-01-16T21:45:11.511Z,24.43
2019-01-16T21:48:00.014Z,26.43
2019-01-16T21:50:57.078Z,24.73
2019-01-16T21:53:32.000Z,32.07
2019-01-16T21:56:26.031Z,23.53
2019-01-16T21:59:20.162Z,22.60
2019-01-16T22:02:04.028Z,25.70
2019-01-16T22:04:51.973Z,24.77
2019-01-16T22:07:51.884Z,31.20
2019-01-16T22:10:40.121Z,24.87
2019-01-16T22:13:14.520Z,27.80
2019-01-16T22:16:00.791Z,31.20
2019-01-16T22:18:51.826Z,34.17
2019-01-16T22:21:40.321Z,28.27
2019-01-16T22:24:14.610Z,28.70
2019-01-16T22:26:51.200Z,29.87
2019-01-16T22:29:44.636Z,32.93
2019-01-16T22:32:42.194Z,27.70
2019-01-16T22:35:23.365Z,30.93
2019-01-16T22:38:02.813Z,30.33
2019-01-16T22:40:49.338Z,36.63
2019-01-16T22:43:49.094Z,30.47
2019-01-16T22:46:49.042Z,31.30
2019-01-16T22:49:31.941Z,33.30
2019-01-16T22:52:24.339Z,29.77
2019-01-16T22:55:04.900Z,28.43
2019-01-16T22:57:47.357Z,33.87
2019-01-16T23:00:45.141Z,29.47
2019-01-16T23:03:31.452Z,33.60
2019-01-16T23:06:19.646Z,34.07
2019-01-16T23:09:05.631Z,28.33
2019-01-16T23:11:45.631Z,33.37
2019-01-16T23:14:35.523Z,38.27
2019-01-16T23:17:15.247Z,35.57
2019-01-16T23:20:02.083Z,32.60
2019-01-16T23:22:48.203Z,30.57
2019-01-16T23:25:28.805Z,32.60
2019-01-16T23:28:29.132Z,37.47
2019-01-16T23:31:19.967Z,33.33
2019-01-16T23:34:02.247Z,31.67
2019-01-16T23:36:55.899Z,37.03
2019-01-16T23:39:43.700Z,38.40
2019-01-16T23:42:28.462Z,35.83
2019-01-16T23:45:11.887Z,38.13
2019-01-16T23:47:53.092Z,34.83
2019-01-16T23:50:41.236Z,31.80
2019-01-16T23:53:32.823Z,28.53
2019-01-16T23:56:12.877Z,29.43
2019-01-16T23:59:01.525Z,33.23
